Time;durP1;ratioP1;P1;durP2;ratioP2;P2;SDS_P1;SDS_P2;PMS_P1;PMS_P2;Temp;Humidity;BMP_temperature;BMP_pressure;BME280_temperature;BME280_humidity;BME280_pressure;Samples;Min_cycle;Max_cycle;Signal;HPM_P1;HPM_P2
2022/11/13 00:00:45;;;;;;;;;;;20.10;53.20;;;;;;5053763;28;19947;-72
2022/11/13 00:03:10;;;;;;;;;;;20.10;53.10;;;;;;5051700;28;19939;-72
2022/11/13 00:05:36;;;;;;;;;;;20.10;53.20;;;;;;5032598;28;19920;-72
2022/11/13 00:08:01;;;;;;;;;;;20.10;53.30;;;;;;5048390;28;19920;-73
2022/11/13 00:10:27;;;;;;;;;;;20.00;53.30;;;;;;5030440;28;19924;-71
2022/11/13 00:12:53;;;;;;;;;;;20.00;53.30;;;;;;5034089;28;19974;-73
2022/11/13 00:15:18;;;;;;;;;;;20.00;53.30;;;;;;5034823;28;19917;-73
2022/11/13 00:17:44;;;;;;;;;;;20.00;53.30;;;;;;5051322;28;19919;-73
2022/11/13 00:20:09;;;;;;;;;;;20.00;53.30;;;;;;5051611;28;20569;-73
2022/11/13 00:22:35;;;;;;;;;;;19.90;53.20;;;;;;5036165;28;19919;-73
2022/11/13 00:25:00;;;;;;;;;;;19.90;53.40;;;;;;5049008;28;19920;-73
2022/11/13 00:27:25;;;;;;;;;;;19.90;53.40;;;;;;5038941;28;19909;-73
2022/11/13 00:29:51;;;;;;;;;;;19.80;53.50;;;;;;5053422;28;19950;-73
2022/11/13 00:32:16;;;;;;;;;;;19.80;53.30;;;;;;5054098;28;19912;-72
2022/11/13 00:34:42;;;;;;;;;;;19.80;53.30;;;;;;5051609;28;19916;-73
2022/11/13 00:37:07;;;;;;;;;;;19.80;53.20;;;;;;5051969;28;19921;-74
2022/11/13 00:39:33;;;;;;;;;;;19.80;53.20;;;;;;5051448;28;21363;-72
2022/11/13 00:41:58;;;;;;;;;;;19.80;53.20;;;;;;5044280;28;19923;-72
2022/11/13 00:44:23;;;;;;;;;;;19.80;53.20;;;;;;5032414;28;20397;-73
2022/11/13 00:46:49;;;;;;;;;;;19.80;53.30;;;;;;5051942;28;19921;-73
2022/11/13 00:49:15;;;;;;;;;;;19.80;53.30;;;;;;5017416;28;19921;-71
2022/11/13 00:51:40;;;;;;;;;;;19.80;53.30;;;;;;5047817;28;19917;-73
2022/11/13 00:54:06;;;;;;;;;;;19.70;53.20;;;;;;5030527;28;19913;-73
2022/11/13 00:56:31;;;;;;;;;;;19.80;53.30;;;;;;5046815;28;19913;-73
2022/11/13 00:58:57;;;;;;;;;;;19.70;53.20;;;;;;5048955;28;19920;-73
2022/11/13 01:01:22;;;;;;;;;;;19.70;53.30;;;;;;5043651;28;19955;-72
2022/11/13 01:03:47;;;;;;;;;;;19.70;53.30;;;;;;5050834;28;20012;-73
2022/11/13 01:06:17;;;;;;;;;;;19.70;53.30;;;;;;5032932;28;19917;-73
2022/11/13 01:08:42;;;;;;;;;;;19.70;53.30;;;;;;5035399;28;19913;-73
2022/11/13 01:11:12;;;;;;;;;;;19.70;53.30;;;;;;5031021;28;19940;-73
2022/11/13 01:13:41;;;;;;;;;;;19.70;53.30;;;;;;5044177;28;19920;-73
2022/11/13 01:16:07;;;;;;;;;;;19.70;53.30;;;;;;5052057;28;20408;-72
2022/11/13 01:18:32;;;;;;;;;;;19.70;53.10;;;;;;5032876;28;20000;-72
2022/11/13 01:21:02;;;;;;;;;;;19.60;53.20;;;;;;5034210;28;19919;-73
2022/11/13 01:23:27;;;;;;;;;;;19.70;53.10;;;;;;5041770;28;19910;-71
2022/11/13 01:25:52;;;;;;;;;;;19.70;53.20;;;;;;5015330;28;19916;-73
2022/11/13 01:28:18;;;;;;;;;;;19.60;53.10;;;;;;5050343;28;19909;-73
2022/11/13 01:30:43;;;;;;;;;;;19.60;53.20;;;;;;5052646;28;20330;-73
2022/11/13 01:33:09;;;;;;;;;;;19.60;53.20;;;;;;5042477;28;20479;-72
2022/11/13 01:35:34;;;;;;;;;;;19.60;53.10;;;;;;5045576;28;19919;-73
2022/11/13 01:38:00;;;;;;;;;;;19.60;53.10;;;;;;5052679;28;19970;-72
2022/11/13 01:40:25;;;;;;;;;;;19.60;53.10;;;;;;5052949;28;19912;-73
2022/11/13 01:42:50;;;;;;;;;;;19.60;53.00;;;;;;5052515;28;19909;-72
2022/11/13 01:45:35;;;;;;;;;;;19.60;53.10;;;;;;5039383;28;19964;-72
2022/11/13 01:48:00;;;;;;;;;;;19.60;52.90;;;;;;5032786;28;19909;-73
2022/11/13 01:50:26;;;;;;;;;;;19.60;52.90;;;;;;5025844;28;19962;-73
2022/11/13 01:52:51;;;;;;;;;;;19.60;52.90;;;;;;5031893;28;19966;-72
2022/11/13 01:55:16;;;;;;;;;;;19.60;53.00;;;;;;5048420;28;19917;-72
2022/11/13 01:57:42;;;;;;;;;;;19.60;53.00;;;;;;5033202;28;19956;-73
2022/11/13 02:00:09;;;;;;;;;;;19.60;52.90;;;;;;5031018;28;19917;-73
2022/11/13 02:02:34;;;;;;;;;;;19.60;52.90;;;;;;5032433;28;19943;-72
2022/11/13 02:05:00;;;;;;;;;;;19.50;52.90;;;;;;5051469;28;19917;-72
2022/11/13 02:07:25;;;;;;;;;;;19.50;52.90;;;;;;5030391;28;20372;-72
2022/11/13 02:09:51;;;;;;;;;;;19.50;52.90;;;;;;5030119;28;19967;-73
2022/11/13 02:12:36;;;;;;;;;;;19.50;52.90;;;;;;5047294;28;19928;-73
2022/11/13 02:15:02;;;;;;;;;;;19.50;52.90;;;;;;5048484;28;20008;-72
2022/11/13 02:17:32;;;;;;;;;;;19.50;52.90;;;;;;5028878;28;20323;-72
2022/11/13 02:19:59;;;;;;;;;;;19.50;52.80;;;;;;5032417;28;19979;-72
2022/11/13 02:22:28;;;;;;;;;;;19.50;52.80;;;;;;5032072;28;19970;-73
2022/11/13 02:24:53;;;;;;;;;;;19.50;52.80;;;;;;5030670;28;19917;-73
2022/11/13 02:27:21;;;;;;;;;;;19.40;52.80;;;;;;5002691;28;20276;-73
2022/11/13 02:29:46;;;;;;;;;;;19.40;52.90;;;;;;5043504;28;19909;-73
2022/11/13 02:32:12;;;;;;;;;;;19.40;53.10;;;;;;5052025;28;20182;-72
2022/11/13 02:34:37;;;;;;;;;;;19.30;53.10;;;;;;5052391;28;19916;-72
2022/11/13 02:37:03;;;;;;;;;;;19.20;53.80;;;;;;5051426;28;19920;-73
2022/11/13 02:39:28;;;;;;;;;;;19.20;53.30;;;;;;5037916;28;20150;-73
2022/11/13 02:41:54;;;;;;;;;;;19.20;53.40;;;;;;5033582;28;19959;-73
2022/11/13 02:44:19;;;;;;;;;;;19.20;53.40;;;;;;5043968;28;20372;-73
2022/11/13 02:46:44;;;;;;;;;;;19.10;53.40;;;;;;5038306;28;19909;-73
2022/11/13 02:49:10;;;;;;;;;;;19.10;53.40;;;;;;5037967;28;19913;-73
2022/11/13 02:51:35;;;;;;;;;;;19.10;53.50;;;;;;5056126;28;19913;-73
2022/11/13 02:54:01;;;;;;;;;;;19.10;53.60;;;;;;5054317;28;19951;-72
2022/11/13 02:56:26;;;;;;;;;;;19.10;53.60;;;;;;5035279;28;20426;-72
2022/11/13 02:58:52;;;;;;;;;;;19.10;53.60;;;;;;5053590;28;19916;-72
2022/11/13 03:01:17;;;;;;;;;;;19.10;53.60;;;;;;5035506;28;19917;-73
2022/11/13 03:03:43;;;;;;;;;;;19.10;53.60;;;;;;5032628;28;20289;-72
2022/11/13 03:06:08;;;;;;;;;;;19.10;53.60;;;;;;5054185;28;19921;-71
2022/11/13 03:08:33;;;;;;;;;;;19.10;53.60;;;;;;5054466;28;19924;-73
2022/11/13 03:10:59;;;;;;;;;;;19.10;53.50;;;;;;5053636;28;20038;-72
2022/11/13 03:13:24;;;;;;;;;;;19.10;53.40;;;;;;5053572;28;19955;-73
2022/11/13 03:15:50;;;;;;;;;;;19.10;53.50;;;;;;5051343;28;19913;-72
2022/11/13 03:18:15;;;;;;;;;;;19.10;53.60;;;;;;5049242;28;19913;-73
2022/11/13 03:20:41;;;;;;;;;;;19.00;53.50;;;;;;5054411;28;19913;-73
2022/11/13 03:23:06;;;;;;;;;;;19.00;53.50;;;;;;5052601;28;19913;-73
2022/11/13 03:25:32;;;;;;;;;;;19.10;53.50;;;;;;5034923;28;19919;-73
2022/11/13 03:27:57;;;;;;;;;;;19.10;53.50;;;;;;5053892;28;19909;-73
2022/11/13 03:30:23;;;;;;;;;;;19.10;53.50;;;;;;5034772;28;19921;-73
2022/11/13 03:32:52;;;;;;;;;;;19.10;53.40;;;;;;5053161;28;19943;-73
2022/11/13 03:35:17;;;;;;;;;;;19.10;53.40;;;;;;5043255;28;20021;-73
2022/11/13 03:37:43;;;;;;;;;;;19.10;53.20;;;;;;5053784;28;19974;-72
2022/11/13 03:40:08;;;;;;;;;;;19.10;53.10;;;;;;5048443;28;20403;-73
2022/11/13 03:42:34;;;;;;;;;;;19.20;53.10;;;;;;5052142;28;19943;-72
2022/11/13 03:44:59;;;;;;;;;;;19.20;53.00;;;;;;5047714;28;19959;-73
2022/11/13 03:47:25;;;;;;;;;;;19.20;52.90;;;;;;5054148;28;19986;-72
2022/11/13 03:49:50;;;;;;;;;;;19.30;53.00;;;;;;5034796;28;19982;-72
2022/11/13 03:52:15;;;;;;;;;;;19.30;52.90;;;;;;5054448;28;19913;-72
2022/11/13 03:54:41;;;;;;;;;;;19.30;52.80;;;;;;5050075;28;19952;-73
2022/11/13 03:57:06;;;;;;;;;;;19.30;52.70;;;;;;5034677;28;19963;-72
2022/11/13 03:59:32;;;;;;;;;;;19.30;52.80;;;;;;5016876;28;19916;-73
2022/11/13 04:01:57;;;;;;;;;;;19.30;52.70;;;;;;5034737;28;19909;-73
2022/11/13 04:04:23;;;;;;;;;;;19.30;52.60;;;;;;5049399;28;20273;-73
2022/11/13 04:06:48;;;;;;;;;;;19.30;52.60;;;;;;5035458;28;19917;-72
2022/11/13 04:09:14;;;;;;;;;;;19.40;52.60;;;;;;5051556;28;20007;-72
2022/11/13 04:11:39;;;;;;;;;;;19.40;52.50;;;;;;5052013;28;19932;-73
2022/11/13 04:14:04;;;;;;;;;;;19.40;52.40;;;;;;5048876;28;19921;-71
2022/11/13 04:16:30;;;;;;;;;;;19.40;52.30;;;;;;5031810;28;19913;-73
2022/11/13 04:18:55;;;;;;;;;;;19.40;52.30;;;;;;5033930;28;19913;-73
2022/11/13 04:21:21;;;;;;;;;;;19.50;52.30;;;;;;5052435;28;19913;-73
2022/11/13 04:23:46;;;;;;;;;;;19.50;52.20;;;;;;5033294;28;19913;-72
2022/11/13 04:26:12;;;;;;;;;;;19.50;52.20;;;;;;5033278;28;19913;-72
2022/11/13 04:28:37;;;;;;;;;;;19.50;52.20;;;;;;5032353;28;19936;-72
2022/11/13 04:31:03;;;;;;;;;;;19.50;52.20;;;;;;5032649;28;19921;-73
2022/11/13 04:33:28;;;;;;;;;;;19.40;52.10;;;;;;5034189;28;20007;-73
2022/11/13 04:35:54;;;;;;;;;;;19.50;52.20;;;;;;5030907;28;19917;-73
2022/11/13 04:38:19;;;;;;;;;;;19.50;52.20;;;;;;5049438;28;20361;-72
2022/11/13 04:40:47;;;;;;;;;;;19.50;52.10;;;;;;5052982;28;19913;-73
2022/11/13 04:43:12;;;;;;;;;;;19.50;52.00;;;;;;5028940;28;19951;-73
2022/11/13 04:45:38;;;;;;;;;;;19.50;52.10;;;;;;5031960;28;19964;-73
2022/11/13 04:48:03;;;;;;;;;;;19.40;52.00;;;;;;5049312;28;19916;-72
2022/11/13 04:50:29;;;;;;;;;;;19.40;52.00;;;;;;5031530;28;19925;-72
2022/11/13 04:52:54;;;;;;;;;;;19.40;52.10;;;;;;5046278;28;19913;-72
2022/11/13 04:55:20;;;;;;;;;;;19.40;52.20;;;;;;5049089;28;19955;-73
2022/11/13 04:57:45;;;;;;;;;;;19.40;52.20;;;;;;5048363;28;19967;-72
2022/11/13 05:00:11;;;;;;;;;;;19.30;52.10;;;;;;5036553;28;20347;-72
2022/11/13 05:02:36;;;;;;;;;;;19.30;52.20;;;;;;5032160;28;19943;-72
2022/11/13 05:05:02;;;;;;;;;;;19.30;52.20;;;;;;5049948;28;19982;-72
2022/11/13 05:07:28;;;;;;;;;;;19.30;52.20;;;;;;5051672;28;19974;-72
2022/11/13 05:09:53;;;;;;;;;;;19.30;52.30;;;;;;5032139;28;19917;-72
2022/11/13 05:12:19;;;;;;;;;;;19.30;52.30;;;;;;5030148;28;19921;-72
2022/11/13 05:14:44;;;;;;;;;;;19.30;52.30;;;;;;5045205;28;20562;-72
2022/11/13 05:17:10;;;;;;;;;;;19.30;52.30;;;;;;5046638;28;20004;-72
2022/11/13 05:19:35;;;;;;;;;;;19.30;52.30;;;;;;5032600;28;19921;-72
2022/11/13 05:22:01;;;;;;;;;;;19.30;52.30;;;;;;5030565;28;19913;-72
2022/11/13 05:24:27;;;;;;;;;;;19.20;52.20;;;;;;5018693;28;19917;-73
2022/11/13 05:26:52;;;;;;;;;;;19.20;52.30;;;;;;5048257;28;20292;-71
2022/11/13 05:29:18;;;;;;;;;;;19.20;52.20;;;;;;5050091;28;19924;-72
2022/11/13 05:31:43;;;;;;;;;;;19.20;52.20;;;;;;5049296;28;19925;-72
2022/11/13 05:34:09;;;;;;;;;;;19.20;52.20;;;;;;5032983;28;20123;-73
2022/11/13 05:36:34;;;;;;;;;;;19.20;52.20;;;;;;5029920;28;19972;-72
2022/11/13 05:39:00;;;;;;;;;;;19.20;52.20;;;;;;5028912;28;19917;-73
2022/11/13 05:41:25;;;;;;;;;;;19.20;52.20;;;;;;5014613;28;19909;-73
2022/11/13 05:43:51;;;;;;;;;;;19.20;52.20;;;;;;5029649;28;19917;-73
2022/11/13 05:46:17;;;;;;;;;;;19.20;52.20;;;;;;5030877;28;19921;-73
2022/11/13 05:48:43;;;;;;;;;;;19.20;52.20;;;;;;5030783;28;19909;-72
2022/11/13 05:51:12;;;;;;;;;;;19.20;52.20;;;;;;5028473;28;19928;-73
2022/11/13 05:53:38;;;;;;;;;;;19.20;52.10;;;;;;5014139;28;19909;-73
2022/11/13 05:56:04;;;;;;;;;;;19.10;52.10;;;;;;5030697;28;20020;-72
2022/11/13 05:58:29;;;;;;;;;;;19.20;52.20;;;;;;5029980;28;19913;-73
2022/11/13 06:01:05;;;;;;;;;;;19.20;52.20;;;;;;5031195;28;19920;-73
2022/11/13 06:03:30;;;;;;;;;;;19.10;52.20;;;;;;5029521;28;19951;-73
2022/11/13 06:05:56;;;;;;;;;;;19.10;52.10;;;;;;5025945;28;20036;-73
2022/11/13 06:08:22;;;;;;;;;;;19.10;52.10;;;;;;5027699;28;19913;-73
2022/11/13 06:10:47;;;;;;;;;;;19.10;52.10;;;;;;5021628;28;20259;-72
2022/11/13 06:13:13;;;;;;;;;;;19.10;52.10;;;;;;5029482;28;20258;-73
2022/11/13 06:15:38;;;;;;;;;;;19.10;52.10;;;;;;5027676;28;20282;-72
2022/11/13 06:18:04;;;;;;;;;;;19.10;52.10;;;;;;5028592;28;19940;-72
2022/11/13 06:20:29;;;;;;;;;;;19.10;52.20;;;;;;5028223;28;19924;-72
2022/11/13 06:22:54;;;;;;;;;;;19.10;52.20;;;;;;5028235;28;19917;-73
2022/11/13 06:25:20;;;;;;;;;;;19.10;52.90;;;;;;5027185;28;19913;-72
2022/11/13 06:27:45;;;;;;;;;;;19.10;52.20;;;;;;5006453;28;19917;-73
2022/11/13 06:30:11;;;;;;;;;;;19.10;52.20;;;;;;5029117;28;20051;-73
2022/11/13 06:32:37;;;;;;;;;;;19.10;52.20;;;;;;5029070;28;19909;-72
2022/11/13 06:35:02;;;;;;;;;;;19.10;52.20;;;;;;5025754;28;19913;-72
2022/11/13 06:37:27;;;;;;;;;;;19.10;52.10;;;;;;5026796;28;19929;-73
2022/11/13 06:39:53;;;;;;;;;;;19.10;52.10;;;;;;5027325;28;19924;-73
2022/11/13 06:42:18;;;;;;;;;;;19.00;52.10;;;;;;5027645;28;20010;-73
2022/11/13 06:44:44;;;;;;;;;;;19.00;52.10;;;;;;5022952;28;19984;-72
2022/11/13 06:47:09;;;;;;;;;;;19.00;52.10;;;;;;5025122;28;19917;-73
2022/11/13 06:49:35;;;;;;;;;;;19.00;52.10;;;;;;5029903;28;19913;-73
2022/11/13 06:52:00;;;;;;;;;;;19.00;52.10;;;;;;5030129;28;19940;-73
2022/11/13 06:54:25;;;;;;;;;;;19.00;52.10;;;;;;5030824;28;19913;-74
2022/11/13 06:56:51;;;;;;;;;;;19.00;52.10;;;;;;5030785;28;19953;-72
2022/11/13 06:59:16;;;;;;;;;;;19.00;52.00;;;;;;5028583;28;19936;-72
2022/11/13 07:01:42;;;;;;;;;;;19.00;52.10;;;;;;5024230;28;19971;-71
2022/11/13 07:04:08;;;;;;;;;;;19.00;52.00;;;;;;5028972;28;19928;-72
2022/11/13 07:06:34;;;;;;;;;;;19.00;52.00;;;;;;5031441;28;19947;-72
2022/11/13 07:08:59;;;;;;;;;;;19.00;52.00;;;;;;5029575;28;19967;-73
2022/11/13 07:11:25;;;;;;;;;;;19.00;51.90;;;;;;5030526;28;19947;-73
2022/11/13 07:13:50;;;;;;;;;;;19.00;51.90;;;;;;5029381;28;20016;-72
2022/11/13 07:16:16;;;;;;;;;;;19.00;51.90;;;;;;5028774;28;20095;-73
2022/11/13 07:18:41;;;;;;;;;;;19.00;51.90;;;;;;5030770;28;20017;-72
2022/11/13 07:21:08;;;;;;;;;;;19.00;52.00;;;;;;5026327;28;19913;-72
2022/11/13 07:23:33;;;;;;;;;;;19.00;52.00;;;;;;5029364;28;19920;-73
2022/11/13 07:25:59;;;;;;;;;;;19.00;52.00;;;;;;5019954;28;20401;-73
2022/11/13 07:28:24;;;;;;;;;;;18.90;52.00;;;;;;5016090;28;19913;-72
2022/11/13 07:30:50;;;;;;;;;;;18.90;52.10;;;;;;5032342;28;19927;-72
2022/11/13 07:33:15;;;;;;;;;;;18.90;52.10;;;;;;5034473;28;20012;-73
2022/11/13 07:35:41;;;;;;;;;;;18.90;52.00;;;;;;5034620;28;19917;-72
2022/11/13 07:38:06;;;;;;;;;;;18.90;52.00;;;;;;5046506;28;19943;-73
2022/11/13 07:40:31;;;;;;;;;;;18.90;52.00;;;;;;5051548;28;19913;-72
2022/11/13 07:42:58;;;;;;;;;;;18.90;52.00;;;;;;5054776;28;19908;-72
2022/11/13 07:45:23;;;;;;;;;;;18.90;52.00;;;;;;5051418;28;20008;-73
2022/11/13 07:47:48;;;;;;;;;;;18.90;52.00;;;;;;5037106;28;20008;-72
2022/11/13 07:50:14;;;;;;;;;;;18.90;52.00;;;;;;5036732;28;19935;-73
2022/11/13 07:52:41;;;;;;;;;;;18.90;52.00;;;;;;5054599;28;19920;-73
2022/11/13 07:55:06;;;;;;;;;;;18.90;51.90;;;;;;5050372;28;20324;-73
2022/11/13 07:57:32;;;;;;;;;;;18.90;51.90;;;;;;5054303;28;20103;-72
2022/11/13 07:59:57;;;;;;;;;;;18.90;51.90;;;;;;5054532;28;19920;-71
2022/11/13 08:02:23;;;;;;;;;;;18.90;51.90;;;;;;5035800;28;19916;-73
2022/11/13 08:04:48;;;;;;;;;;;18.90;52.60;;;;;;5052255;28;19920;-72
2022/11/13 08:07:14;;;;;;;;;;;18.90;52.00;;;;;;5053242;28;19917;-72
2022/11/13 08:09:39;;;;;;;;;;;18.90;52.00;;;;;;5050710;28;19916;-73
2022/11/13 08:12:05;;;;;;;;;;;18.90;52.00;;;;;;5042713;28;19952;-72
2022/11/13 08:14:30;;;;;;;;;;;18.90;51.90;;;;;;5049869;28;19913;-72
2022/11/13 08:16:56;;;;;;;;;;;18.90;51.90;;;;;;5052714;28;20012;-72
2022/11/13 08:19:21;;;;;;;;;;;18.90;51.90;;;;;;5050605;28;19913;-72
2022/11/13 08:21:46;;;;;;;;;;;18.90;51.80;;;;;;5052397;28;20039;-72
2022/11/13 08:24:12;;;;;;;;;;;18.90;51.80;;;;;;5053167;28;20396;-72
2022/11/13 08:26:37;;;;;;;;;;;18.90;51.80;;;;;;5054017;28;20402;-73
2022/11/13 08:29:03;;;;;;;;;;;18.90;51.70;;;;;;5041731;28;19927;-73
2022/11/13 08:31:28;;;;;;;;;;;18.90;51.70;;;;;;5048634;28;20007;-72
2022/11/13 08:33:54;;;;;;;;;;;18.90;51.70;;;;;;5029480;28;19920;-73
2022/11/13 08:36:19;;;;;;;;;;;18.90;51.70;;;;;;5016610;28;19917;-72
2022/11/13 08:38:46;;;;;;;;;;;18.90;51.70;;;;;;5048262;28;19909;-73
2022/11/13 08:41:11;;;;;;;;;;;18.90;51.70;;;;;;5032854;28;19925;-72
2022/11/13 08:43:37;;;;;;;;;;;18.90;51.70;;;;;;5051872;28;20342;-72
2022/11/13 08:46:02;;;;;;;;;;;18.90;51.60;;;;;;5046643;28;19944;-73
2022/11/13 08:48:28;;;;;;;;;;;18.90;51.60;;;;;;5051305;28;19920;-72
2022/11/13 08:50:53;;;;;;;;;;;18.90;51.70;;;;;;5050987;28;20054;-72
2022/11/13 08:53:19;;;;;;;;;;;18.90;51.70;;;;;;5050185;28;19967;-73
2022/11/13 08:55:45;;;;;;;;;;;18.80;51.70;;;;;;5030317;28;20300;-73
2022/11/13 08:58:10;;;;;;;;;;;18.80;51.70;;;;;;5039417;28;19928;-73
2022/11/13 09:00:35;;;;;;;;;;;18.80;51.80;;;;;;5032913;28;21470;-72
2022/11/13 09:03:01;;;;;;;;;;;18.80;51.80;;;;;;5050468;28;20629;-72
2022/11/13 09:05:28;;;;;;;;;;;18.80;51.80;;;;;;5031606;28;19967;-73
2022/11/13 09:07:57;;;;;;;;;;;18.80;51.80;;;;;;5052301;28;19974;-73
2022/11/13 09:10:22;;;;;;;;;;;18.80;51.90;;;;;;5033665;28;19913;-73
2022/11/13 09:12:48;;;;;;;;;;;18.80;51.70;;;;;;5049936;28;20414;-73
2022/11/13 09:15:13;;;;;;;;;;;18.80;51.70;;;;;;5041776;28;19913;-72
2022/11/13 09:17:39;;;;;;;;;;;18.80;51.70;;;;;;5052306;28;19923;-73
2022/11/13 09:20:07;;;;;;;;;;;18.80;51.70;;;;;;5051525;28;19981;-73
2022/11/13 09:22:33;;;;;;;;;;;18.80;51.70;;;;;;5049508;28;19919;-73
2022/11/13 09:24:58;;;;;;;;;;;18.80;51.80;;;;;;5032689;28;19917;-72
2022/11/13 09:27:24;;;;;;;;;;;18.80;51.70;;;;;;5051459;28;19935;-71
2022/11/13 09:29:49;;;;;;;;;;;18.80;51.70;;;;;;5051653;28;19970;-73
2022/11/13 09:32:15;;;;;;;;;;;18.80;51.80;;;;;;5030054;28;19925;-73
2022/11/13 09:34:40;;;;;;;;;;;18.80;51.70;;;;;;5051152;28;19913;-73
2022/11/13 09:37:06;;;;;;;;;;;18.80;51.80;;;;;;5030948;28;20389;-72
2022/11/13 09:39:31;;;;;;;;;;;18.80;51.70;;;;;;5046530;28;20301;-72
2022/11/13 09:42:07;;;;;;;;;;;18.80;51.80;;;;;;5032738;28;20365;-72
2022/11/13 09:44:32;;;;;;;;;;;18.80;51.80;;;;;;5024686;28;19920;-72
2022/11/13 09:47:05;;;;;;;;;;;18.80;51.80;;;;;;5050146;28;22366;-72
2022/11/13 09:49:35;;;;;;;;;;;18.70;51.70;;;;;;5034545;28;19913;-73
2022/11/13 09:52:23;;;;;;;;;;;18.70;51.80;;;;;;5034500;28;20285;-73
2022/11/13 09:54:49;;;;;;;;;;;18.70;51.80;;;;;;5041447;28;19917;-72
2022/11/13 09:57:20;;;;;;;;;;;18.70;51.80;;;;;;5049057;28;20363;-72
2022/11/13 10:00:03;;;;;;;;;;;18.70;51.80;;;;;;5051140;28;19920;-72
2022/11/13 10:02:49;;;;;;;;;;;18.70;51.90;;;;;;5033418;28;20007;-73
2022/11/13 10:05:26;;;;;;;;;;;18.70;51.80;;;;;;5031701;28;19917;-71
2022/11/13 10:08:10;;;;;;;;;;;18.70;51.80;;;;;;5042301;28;20003;-72
2022/11/13 10:10:48;;;;;;;;;;;18.70;51.80;;;;;;5044426;28;19967;-72
2022/11/13 10:13:24;;;;;;;;;;;18.70;51.90;;;;;;5047619;28;19917;-72
2022/11/13 10:15:51;;;;;;;;;;;18.80;51.90;;;;;;5025252;28;19913;-73
2022/11/13 10:18:27;;;;;;;;;;;18.70;51.80;;;;;;5018078;28;19913;-73
2022/11/13 10:20:56;;;;;;;;;;;18.70;51.80;;;;;;5016913;28;19916;-72
2022/11/13 10:23:27;;;;;;;;;;;18.80;51.90;;;;;;5034517;28;19916;-73
2022/11/13 10:25:53;;;;;;;;;;;18.80;51.90;;;;;;5052278;28;19932;-72
2022/11/13 10:28:22;;;;;;;;;;;18.70;52.00;;;;;;5034139;28;20070;-71
2022/11/13 10:30:47;;;;;;;;;;;18.70;52.00;;;;;;5033021;28;19939;-72
2022/11/13 10:33:17;;;;;;;;;;;18.70;52.10;;;;;;5031203;28;20357;-71
2022/11/13 10:35:48;;;;;;;;;;;18.70;52.20;;;;;;5025571;28;19927;-72
2022/11/13 10:38:19;;;;;;;;;;;18.70;52.20;;;;;;5011389;28;19987;-73
2022/11/13 10:40:45;;;;;;;;;;;18.70;52.20;;;;;;5011259;28;19913;-73
2022/11/13 10:43:17;;;;;;;;;;;18.70;52.20;;;;;;5010016;28;19917;-72
2022/11/13 10:45:52;;;;;;;;;;;18.70;52.20;;;;;;5025023;28;20312;-73
2022/11/13 10:48:18;;;;;;;;;;;18.70;52.30;;;;;;5011171;28;19913;-72
2022/11/13 10:50:50;;;;;;;;;;;18.60;52.20;;;;;;5012144;28;19924;-72
2022/11/13 10:53:16;;;;;;;;;;;18.70;52.30;;;;;;5010246;28;19918;-72
2022/11/13 10:55:41;;;;;;;;;;;18.70;52.30;;;;;;5011207;28;19936;-71
2022/11/13 10:58:11;;;;;;;;;;;18.70;52.40;;;;;;5011611;28;19960;-72
2022/11/13 11:00:37;;;;;;;;;;;18.70;52.30;;;;;;5015636;28;19909;-72
2022/11/13 11:03:06;;;;;;;;;;;18.70;52.20;;;;;;4998704;28;19959;-71
2022/11/13 11:05:31;;;;;;;;;;;18.70;52.20;;;;;;5013209;28;19921;-72
2022/11/13 11:07:57;;;;;;;;;;;18.70;52.20;;;;;;5031084;28;19971;-72
2022/11/13 11:10:30;;;;;;;;;;;18.70;52.20;;;;;;5027153;28;19916;-72
2022/11/13 11:13:04;;;;;;;;;;;18.60;52.20;;;;;;5020912;28;19918;-72
2022/11/13 11:15:36;;;;;;;;;;;18.70;52.30;;;;;;5013901;28;19944;-73
2022/11/13 11:18:02;;;;;;;;;;;18.70;52.30;;;;;;5015899;28;19916;-72
2022/11/13 11:20:28;;;;;;;;;;;18.60;52.20;;;;;;4998307;28;19921;-73
2022/11/13 11:22:58;;;;;;;;;;;18.60;52.30;;;;;;5014634;28;19920;-74
2022/11/13 11:25:30;;;;;;;;;;;18.60;52.40;;;;;;5021086;28;19917;-73
2022/11/13 11:27:58;;;;;;;;;;;18.60;52.50;;;;;;5015310;28;19909;-73
2022/11/13 11:30:25;;;;;;;;;;;18.60;52.50;;;;;;5015103;28;19909;-73
2022/11/13 11:32:55;;;;;;;;;;;18.60;52.60;;;;;;4997217;28;19913;-73
2022/11/13 11:35:21;;;;;;;;;;;18.60;52.60;;;;;;5014294;28;19924;-73
2022/11/13 11:37:54;;;;;;;;;;;18.60;52.60;;;;;;5045004;28;20412;-73
2022/11/13 11:40:25;;;;;;;;;;;18.60;52.60;;;;;;5023506;28;20352;-73
2022/11/13 11:42:54;;;;;;;;;;;18.60;52.70;;;;;;5029919;28;20013;-73
2022/11/13 11:45:22;;;;;;;;;;;18.60;52.80;;;;;;5036677;28;20313;-73
2022/11/13 11:47:48;;;;;;;;;;;18.60;52.90;;;;;;5055022;28;19909;-73
2022/11/13 11:50:17;;;;;;;;;;;18.60;52.80;;;;;;5040933;28;19913;-73
2022/11/13 11:52:58;;;;;;;;;;;18.60;52.90;;;;;;5022071;28;20034;-73
2022/11/13 11:55:23;;;;;;;;;;;18.60;53.00;;;;;;5037145;28;19966;-73
2022/11/13 11:58:07;;;;;;;;;;;18.60;53.20;;;;;;5054546;28;19924;-73
2022/11/13 12:00:33;;;;;;;;;;;18.50;53.20;;;;;;5054536;28;19939;-72
2022/11/13 12:03:18;;;;;;;;;;;18.50;53.30;;;;;;5037035;28;19912;-72
2022/11/13 12:05:46;;;;;;;;;;;18.60;53.40;;;;;;5028216;28;20003;-73
2022/11/13 12:08:21;;;;;;;;;;;18.60;53.40;;;;;;5052024;28;19917;-71
2022/11/13 12:10:49;;;;;;;;;;;18.60;53.50;;;;;;5043125;28;20305;-72
2022/11/13 12:13:26;;;;;;;;;;;18.70;53.40;;;;;;5049516;28;19923;-72
2022/11/13 12:15:51;;;;;;;;;;;18.90;53.50;;;;;;5028327;28;19971;-72
2022/11/13 12:18:24;;;;;;;;;;;19.10;53.00;;;;;;5041532;28;19991;-73
2022/11/13 12:21:09;;;;;;;;;;;19.30;52.80;;;;;;5032217;28;19970;-74
2022/11/13 12:23:46;;;;;;;;;;;19.50;52.30;;;;;;5046842;28;19917;-72
2022/11/13 12:26:18;;;;;;;;;;;19.70;52.00;;;;;;5049938;28;19952;-73
2022/11/13 12:28:48;;;;;;;;;;;19.90;51.80;;;;;;5032768;28;19916;-74
2022/11/13 12:31:17;;;;;;;;;;;19.90;51.60;;;;;;5041918;28;19924;-72
2022/11/13 12:34:02;;;;;;;;;;;20.00;51.60;;;;;;5038651;28;20270;-73
2022/11/13 12:36:28;;;;;;;;;;;20.00;51.50;;;;;;5047620;28;19916;-73
2022/11/13 12:39:13;;;;;;;;;;;20.10;51.30;;;;;;5032784;28;19917;-73
2022/11/13 12:41:48;;;;;;;;;;;20.20;51.10;;;;;;5029211;28;19932;-73
2022/11/13 12:44:13;;;;;;;;;;;20.30;51.00;;;;;;5030931;28;19916;-74
2022/11/13 12:46:39;;;;;;;;;;;20.30;51.10;;;;;;5041224;28;20384;-73
2022/11/13 12:49:34;;;;;;;;;;;20.30;51.10;;;;;;5052276;28;19917;-72
2022/11/13 12:51:59;;;;;;;;;;;20.30;51.30;;;;;;5025335;28;19959;-73
2022/11/13 12:54:25;;;;;;;;;;;20.20;51.40;;;;;;5052553;28;19955;-73
2022/11/13 12:56:51;;;;;;;;;;;20.20;51.50;;;;;;5045357;28;19921;-73
2022/11/13 12:59:16;;;;;;;;;;;20.30;51.50;;;;;;5027395;28;19959;-73
2022/11/13 13:01:55;;;;;;;;;;;20.20;51.30;;;;;;5034559;28;19917;-73
2022/11/13 13:04:30;;;;;;;;;;;20.30;51.20;;;;;;5035751;28;20014;-74
2022/11/13 13:07:08;;;;;;;;;;;20.30;51.10;;;;;;5027283;28;19967;-73
2022/11/13 13:09:40;;;;;;;;;;;20.30;51.00;;;;;;5045088;28;19909;-73
2022/11/13 13:12:06;;;;;;;;;;;20.40;50.80;;;;;;5028184;28;19913;-73
2022/11/13 13:14:50;;;;;;;;;;;20.40;50.80;;;;;;5048261;28;19959;-72
2022/11/13 13:17:16;;;;;;;;;;;20.40;50.60;;;;;;5052879;28;19963;-73
2022/11/13 13:19:43;;;;;;;;;;;20.40;50.70;;;;;;5052881;28;19912;-72
2022/11/13 13:22:09;;;;;;;;;;;20.40;50.90;;;;;;5050520;28;20564;-73
2022/11/13 13:24:35;;;;;;;;;;;20.40;51.00;;;;;;5015594;28;19916;-73
2022/11/13 13:27:01;;;;;;;;;;;20.40;51.00;;;;;;5050937;28;19913;-74
2022/11/13 13:29:27;;;;;;;;;;;20.40;51.00;;;;;;5033111;28;20296;-73
2022/11/13 13:31:58;;;;;;;;;;;20.40;51.00;;;;;;5032946;28;20327;-73
2022/11/13 13:34:42;;;;;;;;;;;20.40;51.00;;;;;;5052251;28;19966;-72
2022/11/13 13:37:17;;;;;;;;;;;20.40;51.10;;;;;;5031066;28;20008;-71
2022/11/13 13:39:45;;;;;;;;;;;20.30;51.10;;;;;;5033948;28;19924;-71
2022/11/13 13:42:31;;;;;;;;;;;20.30;51.30;;;;;;5035014;28;19917;-71
2022/11/13 13:45:00;;;;;;;;;;;20.30;51.30;;;;;;5029856;28;19912;-72
2022/11/13 13:47:27;;;;;;;;;;;20.30;51.40;;;;;;5029831;28;19920;-73
2022/11/13 13:49:52;;;;;;;;;;;20.30;51.40;;;;;;5032671;28;19921;-71
2022/11/13 13:52:19;;;;;;;;;;;20.30;51.40;;;;;;5052147;28;19920;-72
2022/11/13 13:54:44;;;;;;;;;;;20.30;51.60;;;;;;5034189;28;20440;-72
2022/11/13 13:57:11;;;;;;;;;;;20.30;51.60;;;;;;5040423;28;20003;-72
2022/11/13 13:59:36;;;;;;;;;;;20.30;52.10;;;;;;5027419;28;19917;-72
2022/11/13 14:02:03;;;;;;;;;;;20.30;51.80;;;;;;5042974;28;19936;-71
2022/11/13 14:04:31;;;;;;;;;;;20.30;51.90;;;;;;5032794;28;19913;-72
2022/11/13 14:06:57;;;;;;;;;;;20.30;51.80;;;;;;5043198;28;20281;-72
2022/11/13 14:09:23;;;;;;;;;;;20.30;51.80;;;;;;5033067;28;19923;-71
2022/11/13 14:11:59;;;;;;;;;;;20.30;52.00;;;;;;5050717;28;19923;-72
2022/11/13 14:14:24;;;;;;;;;;;20.30;52.30;;;;;;5050012;28;20424;-72
2022/11/13 14:16:50;;;;;;;;;;;20.30;52.90;;;;;;5050969;28;20119;-73